Delta Virtual Airport Information Service

Seattle Tacoma International Airport

ICAO: KSEA Country: United States
Latitude: 47.4482 Longitude: -122.311
Latest Arrival : UAL1865 (3B) (KLAX-KSEA) Latest Departure : ASA1020 (KSEA-KPDX)


WX CaptureLIVE
Data provided by noaa.gov | Fetched at 21:47:24

METAR : KSEA 240153Z 35010KT 9SM OVC008 09/07 A2981 RMK AO2 SLP103 T00940072

TAF : KSEA 232321Z 2400/2506 19010KT P6SM OVC020 FM240400 07006KT P6SM OVC010 FM240600 04010KT P6SM OVC025 FM241200 02010KT P6SM OVC035 FM241500 02014G22KT P6SM SCT015 OVC025


Runway Data for KSEA
Data provided by openaviationdata.com

Runway ID Mag Var Hdg Length Elevation Surface ILS Freq ILS Id ILS Slope
16L 19 161° 11894 ft 362 ft Asphalt 110.3 ISNQ 3
16R 19 161° 9421 ft 362 ft Concrete 111.7 ISZI 3
34L 19 341° 9421 ft 362 ft Concrete 111.7 ITUC 3
34R 19 341° 11894 ft 362 ft Asphalt 110.3 ISEA 2

Seattle Tacoma International Airport, United States
Use only for reference purposes



Not for navigational purposes.